Latest Coastal Weather Observations for Adelaide Airport

IDS60701

Issued at 9:41 am CST Saturday 20 April 2024 (issued every 10 minutes, with the page automatically refreshed every 10 minutes)

About coastal observations | Map of coastal stations | Coastal observations for SA | Marine services | Other Formats
Station Details ID: 023034 Name: ADELAIDE AIRPORT Lat: -34.95 Lon: 138.52 Height: 2.0 m
Data from the previous 72 hours. | See also: Recent months at Adelaide Airport
Date/Time
CST
Wind Sea
Height
m
Swell Vis
km
Cloud Weather Temp
°C
Press
MSL
hPa
Rain since
9am
mm
Dir  Spd
kts
Gust
kts
Height
m
Period
s
Dir
20/09:30am ESE 11 15 - - - - 10 Mostly clear - 15.6 1032.1 0.0
20/09:00am ESE 11 14 - - - - 30 Mostly clear Fine 14.9 1031.9 0.0
20/08:30am ESE 8 13 - - - - 10 Mostly clear - 14.4 1032.0 0.0
20/08:00am ESE 5 7 - - - - 10 Mostly clear - 13.4 1031.6 0.0
20/07:30am SE 4 6 - - - - 10 Mostly clear - 12.0 1031.1 0.0
20/07:00am SE 5 7 - - - - 10 Mostly clear - 10.0 1030.7 0.0
20/06:30am W 3 5 - - - - 10 Mostly clear - 10.0 1030.6 0.0
20/06:00am SE 5 6 - - - - 40 Mostly clear Fine 8.8 1030.6 0.0
20/05:30am SE 7 8 - - - - 10 - - 9.4 1030.3 0.0
20/05:00am SE 7 9 - - - - 10 - - 9.9 1030.3 0.0
20/04:30am SSE 7 8 - - - - 10 - - 10.3 1030.0 0.0
20/04:00am SSE 7 7 - - - - 10 - - 10.1 1029.4 0.0
20/03:30am SSE 6 7 - - - - 10 - - 10.3 1029.2 0.0
20/03:00am S 7 8 - - - - 30 Clear Fine 10.8 1029.2 0.0
20/02:30am SSW 6 7 - - - - 10 - - 11.2 1029.2 0.0
20/02:00am SSE 5 7 - - - - 10 Mostly clear - 11.2 1029.3 0.0
20/01:30am S 6 8 - - - - 10 Mostly clear - 11.5 1029.5 0.0
20/01:00am SSW 6 7 - - - - 10 Mostly clear - 12.2 1029.5 0.0
20/12:30am S 7 8 - - - - 10 Mostly clear - 12.3 1029.4 0.0
20/12:00am S 5 7 - - - - 30 Mostly clear Fine 12.3 1029.4 0.0
 
Date/Time
CST
Wind Sea
Height
m
Swell Vis
km
Cloud Weather Temp
°C
Press
MSL
hPa
Rain since
9am
mm
Dir  Spd
kts
Gust
kts
Height
m
Period
s
Dir
19/11:30pm SSW 7 8 - - - - 10 Mostly clear - 12.5 1029.6 0.0
19/11:00pm S 6 8 - - - - 10 Mostly clear - 12.9 1029.9 0.0
19/10:30pm SSW 6 7 - - - - 10 Mostly clear - 13.1 1029.8 0.0
19/10:00pm SSW 7 8 - - - - 10 Mostly clear - 13.5 1029.8 0.0
19/09:30pm SSW 7 7 - - - - 10 Mostly clear - 13.1 1029.6 0.0
19/09:00pm S 6 7 - - - - 25 Mostly clear Fine 13.7 1029.4 0.0
19/08:30pm SSW 6 7 - - - - 10 Mostly clear - 13.9 1029.0 0.0
19/08:00pm SSW 5 8 - - - - 10 Mostly clear - 14.6 1028.7 0.0
19/07:30pm SSW 7 12 - - - - 10 Mostly clear - 14.8 1028.5 0.0
19/07:00pm S 11 16 - - - - 10 Partly cloudy - 14.7 1028.3 0.0
19/06:30pm S 8 11 - - - - 10 Partly cloudy - 15.2 1028.0 0.0
19/06:00pm S 9 13 - - - - 35 Mostly clear Fine 15.5 1027.5 0.0
19/05:30pm SSE 9 13 - - - - 10 Partly cloudy - 16.1 1027.0 0.0
19/05:00pm S 12 19 - - - - 10 Partly cloudy - 16.5 1026.8 0.0
19/04:30pm SSE 12 17 - - - - 10 Partly cloudy - 17.4 1026.3 0.0
19/04:00pm SSE 15 20 - - - - 10 Partly cloudy - 17.7 1026.2 0.0
19/03:40pm SSE 15 25 - - - - 10 Partly cloudy - 18.1 1026.1 0.0
19/03:30pm SSE 15 21 - - - - 10 Partly cloudy - 18.1 1026.0 0.0
19/03:00pm SE 13 17 - - - - 40 Mostly cloudy Fine 19.0 1025.7 0.0
19/02:30pm SSE 13 21 - - - - 10 Mostly cloudy - 18.9 1025.5 0.0
19/02:04pm SSE 15 25 - - - - 10 Mostly cloudy - 18.2 1025.5 0.0
19/02:00pm SSE 14 20 - - - - 10 Mostly cloudy - 19.6 1025.4 0.0
19/01:42pm SSE 16 26 - - - - 10 Partly cloudy - 18.7 1025.4 0.0
19/01:30pm SSE 12 18 - - - - 10 Mostly cloudy - 18.7 1025.3 0.0
19/01:00pm S 14 20 - - - - 10 Mostly cloudy - 18.7 1025.6 0.0
19/12:30pm SSE 15 26 - - - - 10 Mostly cloudy - 18.4 1025.8 0.0
19/12:21pm S 15 26 - - - - 10 Mostly cloudy - 18.0 1025.9 0.0
19/12:00pm SSE 14 20 - - - - 35 Mostly cloudy Fine 18.0 1025.9 0.0
19/11:30am SSE 13 17 - - - - 10 Mostly clear - 17.9 1026.1 0.0
19/11:00am SSE 12 17 - - - - 10 Partly cloudy - 17.7 1026.2 0.0
19/10:30am SSE 12 17 - - - - 10 Mostly clear - 18.1 1025.8 0.0
19/10:00am SSE 11 16 - - - - 10 Mostly clear - 16.7 1025.9 0.0
19/09:30am SSE 12 17 - - - - 10 Mostly clear - 15.9 1025.8 0.0
19/09:00am SSE 13 16 - - - - 25 Partly cloudy Distant precip. 15.1 1025.9 3.0
19/08:30am SSE 11 15 - - - - 10 Mostly clear - 15.0 1025.8 3.0
19/08:00am S 10 15 - - - - 10 Mostly clear - 14.3 1025.4 3.0
19/07:30am S 7 10 - - - - 10 Mostly clear - 13.7 1025.0 3.0
19/07:00am SSE 9 17 - - - - 10 Mostly clear - 13.4 1024.7 3.0
19/06:30am SSE 7 10 - - - - 10 Mostly clear - 13.0 1024.3 3.0
19/06:00am S 5 7 - - - - 15 Mostly cloudy Distant precip. 14.0 1024.1 3.0
19/05:30am S 8 10 - - - - 10 Mostly cloudy - 13.3 1023.7 3.0
19/05:00am S 6 9 - - - - 10 Mostly clear - 13.7 1023.3 3.0
19/04:30am S 7 9 - - - - 10 Mostly clear - 14.0 1022.9 3.0
19/04:00am S 11 14 - - - - 10 Mostly clear - 14.8 1022.7 3.0
19/03:30am S 10 15 - - - - 10 Mostly clear - 15.0 1022.4 3.0
19/03:00am S 10 15 - - - - 25 Mostly cloudy Recent precip. 15.3 1022.2 3.0
19/02:49am S 10 14 - - - - 10 Mostly clear - 15.5 1022.2 3.0
19/02:30am SSW 13 18 - - - - 5 Mostly clear - 16.2 1022.2 2.6
19/02:17am SW 12 17 - - - - 3 Mostly clear Showers 16.4 1022.2 1.6
19/02:00am SW 13 18 - - - - 10 Mostly clear - 16.7 1022.4 1.6
19/01:30am SW 13 19 - - - - 7 Partly cloudy - 16.4 1022.5 1.6
19/01:15am SW 11 16 - - - - 3 Mostly clear Showers 16.2 1022.6 1.2
19/01:00am SW 14 18 - - - - 8 Partly cloudy Drizzle 16.1 1022.7 1.2
19/12:54am SW 12 17 - - - - 5 Partly cloudy Drizzle 16.3 1022.8 1.2
19/12:30am SW 12 17 - - - - 10 Mostly clear - 16.8 1022.9 1.2
19/12:00am SW 13 16 - - - - 10 Cloudy Drizzle 16.4 1023.2 1.0
 
Date/Time
CST
Wind Sea
Height
m
Swell Vis
km
Cloud Weather Temp
°C
Press
MSL
hPa
Rain since
9am
mm
Dir  Spd
kts
Gust
kts
Height
m
Period
s
Dir
18/11:30pm SW 12 18 - - - - 10 Partly cloudy - 16.4 1023.6 1.0
18/11:18pm SW 13 17 - - - - 8 Mostly cloudy Drizzle 16.1 1023.6 0.8
18/11:00pm SW 12 17 - - - - 8 Partly cloudy Drizzle 16.0 1023.9 0.8
18/10:47pm SW 14 19 - - - - 8 Partly cloudy Drizzle 15.9 1024.1 0.8
18/10:30pm WSW 9 12 - - - - 7 Partly cloudy - 16.3 1024.3 0.8
18/10:07pm SW 11 15 - - - - 5 Partly cloudy Drizzle 15.4 1024.6 0.8
18/10:00pm SW 13 19 - - - - 7 Mostly clear Drizzle 15.8 1024.6 0.8
18/09:30pm SSW 12 18 - - - - 10 Mostly clear - 16.7 1024.7 0.8
18/09:00pm SW 11 15 - - - - 10 Cloudy Distant precip. 16.7 1024.6 0.8
18/08:30pm SSW 12 18 - - - - 10 Partly cloudy - 17.0 1024.5 0.8
18/08:00pm SW 10 14 - - - - 10 Mostly clear - 16.9 1024.4 0.8
18/07:30pm SSW 11 16 - - - - 10 Partly cloudy - 16.8 1024.4 0.8
18/07:00pm SW 12 18 - - - - 10 Mostly clear - 16.6 1024.4 0.8
18/06:30pm SSW 9 15 - - - - 10 Partly cloudy - 16.6 1024.3 0.8
18/06:00pm SSW 8 11 - - - - 20 Mostly cloudy Distant precip. 15.8 1024.4 0.8
18/05:30pm SW 6 7 - - - - 10 Partly cloudy - 15.2 1024.5 0.8
18/05:19pm SSW 8 12 - - - - 10 Partly cloudy - 14.8 1024.6 0.8
18/05:00pm SSW 8 10 - - - - 5 Partly cloudy Showers 15.2 1024.6 0.2
18/04:58pm SSW 8 11 - - - - 6 Partly cloudy Showers 15.2 1024.6 0.2
18/04:51pm SSW 10 15 - - - - 7 Partly cloudy Showers 15.5 1024.6 0.0
18/04:30pm WSW 14 18 - - - - 10 Partly cloudy - 16.0 1024.8 0.0
18/04:00pm SW 11 15 - - - - 10 Partly cloudy Showers 16.5 1025.0 0.0
18/03:30pm SW 12 17 - - - - 10 Partly cloudy - 16.5 1025.2 0.0
18/03:00pm WSW 11 14 - - - - 40 Cloudy Fine 16.8 1025.5 0.0
18/02:30pm WSW 15 18 - - - - 10 Mostly cloudy - 17.2 1025.5 0.0
18/02:00pm SW 12 17 - - - - 10 Mostly cloudy - 17.5 1025.6 0.0
18/01:30pm WSW 13 18 - - - - 10 Cloudy - 17.3 1025.9 0.0
18/01:00pm WSW 10 14 - - - - 10 Mostly cloudy - 17.1 1026.3 0.0
18/12:30pm SW 13 17 - - - - 10 Mostly cloudy - 16.9 1026.8 0.0
18/12:00pm WSW 15 18 - - - - 40 Mostly cloudy Fine 16.7 1027.2 0.0
18/11:30am SW 11 16 - - - - 10 Cloudy - 16.6 1027.4 0.0
18/11:00am SW 7 9 - - - - 10 Cloudy - 16.6 1027.5 0.0
18/10:30am SSW 6 9 - - - - 10 Cloudy - 16.5 1027.6 0.0
18/10:00am SW 6 9 - - - - 10 Cloudy - 16.2 1027.7 0.0
18/09:30am S 6 8 - - - - 10 Cloudy - 15.9 1027.9 0.0
18/09:00am S 6 8 - - - - 40 Cloudy Fine 15.7 1027.8 0.0
18/08:30am SSE 9 11 - - - - 10 Cloudy - 15.6 1028.0 0.0
18/08:00am SSE 7 9 - - - - 10 Cloudy - 15.2 1027.8 0.0
18/07:30am S 5 8 - - - - 10 Cloudy - 14.8 1027.7 0.0
18/07:00am SSE 6 8 - - - - 10 Cloudy - 14.5 1027.3 0.0
18/06:30am SE 5 6 - - - - 10 Cloudy - 14.3 1027.0 0.0
18/06:00am SE 6 8 - - - - 40 Cloudy Fine 14.3 1026.9 0.0
18/05:30am SSE 5 8 - - - - 10 Mostly clear - 13.9 1026.8 0.0
18/05:00am S 6 7 - - - - 10 Mostly clear - 13.8 1026.8 0.0
18/04:30am SSE 4 5 - - - - 10 Mostly clear - 13.9 1026.6 0.0
18/04:00am SE 5 6 - - - - 10 Mostly cloudy - 14.1 1026.6 0.0
18/03:30am SSE 5 7 - - - - 10 Mostly cloudy - 13.8 1026.6 0.0
18/03:00am SSE 5 6 - - - - 30 Mostly cloudy Distant precip. 13.8 1026.9 0.0
18/02:30am SSE 7 8 - - - - 10 Mostly clear - 13.8 1027.1 0.0
18/02:00am SSE 5 7 - - - - 10 Mostly clear - 13.5 1027.5 0.0
18/01:30am S 8 10 - - - - 10 Mostly clear - 13.6 1027.7 0.0
18/01:00am SSE 5 6 - - - - 10 Mostly clear - 13.2 1027.8 0.0
18/12:30am SE 3 4 - - - - 10 Mostly clear - 12.9 1027.7 0.0
18/12:00am SE 5 6 - - - - 40 Mostly cloudy Fine 13.1 1027.7 0.0
 
Date/Time
CST
Wind Sea
Height
m
Swell Vis
km
Cloud Weather Temp
°C
Press
MSL
hPa
Rain since
9am
mm
Dir  Spd
kts
Gust
kts
Height
m
Period
s
Dir
17/11:30pm SSE 5 8 - - - - 10 Mostly clear - 13.4 1028.1 0.0
17/11:00pm SE 4 4 - - - - 10 Mostly clear - 11.9 1028.3 0.0
17/10:30pm S 5 5 - - - - 10 Mostly clear - 12.2 1028.4 0.0
17/10:00pm SSW 5 6 - - - - 10 Mostly clear - 12.9 1028.5 0.0
17/09:30pm SSW 6 8 - - - - 10 Mostly clear - 13.8 1028.6 0.0
17/09:00pm SSE 6 8 - - - - 40 Partly cloudy Distant precip. 13.4 1028.5 0.0
17/08:30pm S 7 9 - - - - 10 Mostly clear - 13.5 1028.5 0.0
17/08:00pm SSE 7 9 - - - - 10 Mostly clear - 14.1 1028.2 0.0
17/07:30pm SSE 10 13 - - - - 10 Mostly clear - 14.5 1028.0 0.0
17/07:00pm SSE 8 10 - - - - 10 Mostly clear - 14.8 1027.6 0.0
17/06:30pm SSE 9 14 - - - - 10 Mostly clear - 15.6 1027.2 0.0
17/06:00pm SSE 8 12 - - - - 40 Partly cloudy Fine 16.1 1026.9 0.0
17/05:30pm SSE 10 15 - - - - 10 Mostly clear - 17.3 1026.4 0.0
17/05:00pm SSE 13 18 - - - - 10 Mostly clear - 17.7 1026.2 0.0
17/04:30pm S 11 15 - - - - 10 Mostly clear - 18.9 1026.0 0.0
17/04:00pm S 12 17 - - - - 10 Mostly clear - 19.5 1026.0 0.0
17/03:30pm S 12 22 - - - - 10 Mostly clear - 19.5 1026.2 0.0
17/03:00pm SSW 14 19 - - - - 40 Mostly cloudy Fine 19.0 1026.4 0.0
17/02:30pm SW 16 20 - - - - 10 Mostly clear - 18.8 1026.5 0.0
17/02:00pm SW 14 18 - - - - 10 Mostly clear - 19.1 1026.7 0.0
17/01:30pm SSW 8 10 - - - - 10 Mostly clear - 18.5 1027.0 0.0
17/01:00pm SSW 11 18 - - - - 10 Mostly clear - 18.8 1027.5 0.0
17/12:30pm SSW 11 15 - - - - 10 Partly cloudy - 17.9 1028.0 0.0
17/12:00pm S 12 15 - - - - 40 Mostly cloudy Fine 17.7 1028.2 0.0
17/11:30am SSW 10 15 - - - - 10 Mostly clear - 18.4 1028.4 0.0
17/11:00am SSW 7 10 - - - - 10 Partly cloudy - 18.9 1028.4 0.0
17/10:30am SE 7 12 - - - - 10 Partly cloudy - 19.7 1028.5 0.0
17/10:00am SSE 7 11 - - - - 10 Mostly clear - 18.3 1028.7 0.0

Other formats

Comma delimited format used in spreadsheet applications
http://www.bom.gov.au/fwo/IDS60701/IDS60701.94672.axf

JavaScript Object Notation format (JSON) in row-major order
http://www.bom.gov.au/fwo/IDS60701/IDS60701.94672.json

Data quality

Most of these data are generated automatically and are frequently updated. Quality checks on data are not normally performed. It is possible for incorrect values to appear. Refer to information at About Latest Weather Observations and please check the disclaimer before using these data.